TimeEST,TemperatureF,Dew PointF,Humidity,Sea Level PressureIn,VisibilityMPH,Wind Direction,Wind SpeedMPH,Gust SpeedMPH,PrecipitationIn,Events,Conditions,WindDirDegrees,DateUTC
12:15 AM,28.4,23.5,82,30.13,7.0,SW,12.7,-,N/A,Snow,Light Snow,230,2013-12-26 05:15:00
12:35 AM,28.4,24.1,84,30.12,10.0,SW,15.0,20.7,N/A,,Overcast,230,2013-12-26 05:35:00
12:55 AM,28.4,24.8,86,30.12,5.0,SW,13.8,-,N/A,,Overcast,230,2013-12-26 05:55:00
1:15 AM,28.4,26.6,93,30.11,2.5,SW,15.0,-,N/A,,Overcast,230,2013-12-26 06:15:00
1:35 AM,28.4,27.7,97,30.11,3.0,WSW,15.0,19.6,N/A,,Overcast,240,2013-12-26 06:35:00
1:55 AM,28.8,28.2,98,30.11,4.0,WSW,13.8,19.6,N/A,,Overcast,240,2013-12-26 06:55:00
2:15 AM,29.1,28.2,96,30.11,7.0,West,23.0,31.1,N/A,,Overcast,260,2013-12-26 07:15:00
2:35 AM,28.8,27.5,95,30.12,7.0,West,20.7,-,N/A,,Overcast,270,2013-12-26 07:35:00
2:55 AM,28.4,27.3,96,30.14,7.0,West,21.9,27.6,N/A,,Overcast,280,2013-12-26 07:55:00
3:15 AM,27.9,26.1,93,30.14,10.0,West,15.0,-,N/A,,Overcast,280,2013-12-26 08:15:00
3:35 AM,27.9,24.3,86,30.14,5.0,West,19.6,24.2,N/A,Snow,Light Snow,270,2013-12-26 08:35:00
3:55 AM,27.5,23.9,86,30.15,7.0,West,17.3,25.3,N/A,,Overcast,270,2013-12-26 08:55:00
4:15 AM,27.5,23.9,86,30.15,5.0,West,20.7,25.3,N/A,,Overcast,270,2013-12-26 09:15:00
4:35 AM,27.5,23.5,85,30.16,10.0,West,18.4,-,N/A,,Overcast,270,2013-12-26 09:35:00
4:55 AM,27.3,23.0,84,30.17,10.0,West,19.6,28.8,N/A,,Overcast,280,2013-12-26 09:55:00
5:15 AM,27.0,22.3,83,30.17,10.0,West,19.6,26.5,N/A,,Overcast,280,2013-12-26 10:15:00
5:35 AM,26.8,21.9,82,30.18,10.0,West,19.6,28.8,N/A,,Overcast,280,2013-12-26 10:35:00
5:55 AM,25.9,20.3,79,30.19,10.0,West,17.3,-,N/A,,Scattered Clouds,270,2013-12-26 10:55:00
6:15 AM,24.8,19.2,79,30.19,10.0,West,12.7,-,N/A,,Clear,260,2013-12-26 11:15:00
6:35 AM,24.1,18.1,78,30.20,10.0,West,18.4,25.3,N/A,,Clear,270,2013-12-26 11:35:00
6:55 AM,23.2,16.9,77,30.21,5.0,West,12.7,-,N/A,Snow,Light Snow,270,2013-12-26 11:55:00
7:15 AM,22.1,16.7,80,30.22,10.0,West,8.1,-,N/A,,Clear,260,2013-12-26 12:15:00
7:35 AM,21.6,16.7,82,30.22,10.0,West,9.2,-,N/A,,Clear,280,2013-12-26 12:35:00
7:55 AM,20.8,15.1,78,30.23,5.0,West,16.1,-,N/A,,Haze,280,2013-12-26 12:55:00
8:15 AM,20.1,13.3,75,30.25,10.0,WNW,16.1,-,N/A,,Clear,290,2013-12-26 13:15:00
8:35 AM,19.4,12.9,76,30.26,10.0,West,13.8,-,N/A,,Clear,270,2013-12-26 13:35:00
8:55 AM,19.4,13.1,76,30.28,10.0,West,15.0,-,N/A,,Clear,270,2013-12-26 13:55:00
9:15 AM,19.9,13.6,77,30.28,10.0,West,16.1,-,N/A,,Clear,270,2013-12-26 14:15:00
9:35 AM,20.5,14.0,76,30.29,10.0,West,15.0,-,N/A,,Clear,270,2013-12-26 14:35:00
9:55 AM,21.2,14.4,75,30.31,10.0,West,16.1,-,N/A,,Scattered Clouds,270,2013-12-26 14:55:00
10:15 AM,22.3,15.3,74,30.31,7.0,WSW,15.0,-,N/A,,Scattered Clouds,250,2013-12-26 15:15:00
10:35 AM,23.2,15.4,72,30.33,10.0,West,15.0,-,N/A,,Clear,260,2013-12-26 15:35:00
10:55 AM,24.3,15.4,69,30.33,5.0,West,15.0,-,N/A,,Haze,270,2013-12-26 15:55:00
11:15 AM,24.8,14.9,66,30.33,10.0,West,13.8,-,N/A,,Clear,270,2013-12-26 16:15:00
11:35 AM,26.1,15.4,64,30.33,10.0,West,15.0,-,N/A,,Scattered Clouds,260,2013-12-26 16:35:00
11:55 AM,26.8,16.0,64,30.33,10.0,West,12.7,-,N/A,,Overcast,270,2013-12-26 16:55:00
12:15 PM,27.5,16.2,62,30.32,10.0,West,12.7,-,N/A,,Overcast,270,2013-12-26 17:15:00
12:35 PM,28.2,16.9,63,30.31,10.0,West,13.8,-,N/A,,Overcast,260,2013-12-26 17:35:00
12:55 PM,28.9,17.6,63,30.31,10.0,West,12.7,-,N/A,,Overcast,260,2013-12-26 17:55:00
1:15 PM,29.7,18.1,62,30.31,10.0,West,11.5,-,N/A,,Mostly Cloudy,260,2013-12-26 18:15:00
1:35 PM,30.6,18.9,62,30.31,10.0,West,12.7,-,N/A,,Clear,260,2013-12-26 18:35:00
1:55 PM,31.3,19.0,61,30.30,10.0,West,10.4,-,N/A,,Clear,270,2013-12-26 18:55:00
2:15 PM,31.8,19.4,60,30.30,5.0,West,9.2,-,N/A,,Haze,270,2013-12-26 19:15:00
2:35 PM,32.0,19.2,59,30.30,7.0,West,10.4,-,N/A,,Scattered Clouds,260,2013-12-26 19:35:00
2:55 PM,32.0,19.6,60,30.30,10.0,WSW,8.1,-,N/A,,Clear,250,2013-12-26 19:55:00
3:15 PM,32.2,19.6,60,30.29,10.0,WSW,6.9,-,N/A,,Clear,240,2013-12-26 20:15:00
3:35 PM,32.5,19.8,59,30.29,5.0,WSW,6.9,-,N/A,,Haze,240,2013-12-26 20:35:00
3:55 PM,32.9,20.3,60,30.29,10.0,WSW,8.1,-,N/A,,Scattered Clouds,240,2013-12-26 20:55:00
4:15 PM,32.2,20.8,63,30.29,10.0,SW,9.2,-,N/A,,Overcast,220,2013-12-26 21:15:00
4:35 PM,32.0,21.4,65,30.30,7.0,SW,9.2,-,N/A,,Overcast,230,2013-12-26 21:35:00
4:55 PM,32.0,21.4,65,30.29,10.0,SW,6.9,-,N/A,,Overcast,220,2013-12-26 21:55:00
5:15 PM,32.0,22.1,67,30.29,4.0,SSW,6.9,-,N/A,,Haze,210,2013-12-26 22:15:00
5:35 PM,32.0,22.5,68,30.29,10.0,SSW,8.1,-,N/A,,Overcast,200,2013-12-26 22:35:00
5:55 PM,31.5,22.6,70,30.29,10.0,SSW,4.6,-,N/A,,Overcast,200,2013-12-26 22:55:00
6:15 PM,30.7,22.6,72,30.29,10.0,SSW,9.2,-,N/A,,Mostly Cloudy,200,2013-12-26 23:15:00
6:35 PM,31.5,23.0,71,30.29,10.0,South,6.9,-,N/A,,Scattered Clouds,190,2013-12-26 23:35:00
6:55 PM,31.5,23.4,72,30.29,10.0,South,6.9,-,N/A,,Scattered Clouds,190,2013-12-26 23:55:00
7:15 PM,31.3,23.5,73,30.29,7.0,SSW,8.1,-,N/A,,Scattered Clouds,200,2013-12-27 00:15:00
7:35 PM,31.5,23.7,73,30.28,10.0,South,8.1,-,N/A,,Mostly Cloudy,180,2013-12-27 00:35:00
7:55 PM,31.5,23.7,73,30.28,5.0,South,8.1,-,N/A,,Haze,190,2013-12-27 00:55:00
8:15 PM,31.5,23.9,74,30.27,10.0,South,9.2,-,N/A,,Scattered Clouds,190,2013-12-27 01:15:00
8:35 PM,31.5,23.9,74,30.26,10.0,South,9.2,-,N/A,,Scattered Clouds,190,2013-12-27 01:35:00
8:55 PM,31.8,23.7,72,30.26,7.0,South,9.2,-,N/A,,Scattered Clouds,190,2013-12-27 01:55:00
9:15 PM,31.6,23.7,73,30.26,10.0,SSW,11.5,-,N/A,,Mostly Cloudy,200,2013-12-27 02:15:00
9:35 PM,32.0,23.7,71,30.26,10.0,SSW,11.5,17.3,N/A,,Overcast,210,2013-12-27 02:35:00
9:55 PM,32.0,23.2,70,30.26,10.0,SSW,13.8,-,N/A,,Overcast,210,2013-12-27 02:55:00
10:15 PM,32.0,23.0,69,30.26,7.0,SSW,12.7,-,N/A,,Overcast,210,2013-12-27 03:15:00
10:35 PM,31.8,23.0,70,30.27,10.0,SW,10.4,-,N/A,,Overcast,220,2013-12-27 03:35:00
10:55 PM,31.8,22.8,69,30.27,10.0,SSW,12.7,-,N/A,,Overcast,210,2013-12-27 03:55:00
11:15 PM,32.0,22.6,68,30.27,10.0,SW,12.7,-,N/A,,Overcast,220,2013-12-27 04:15:00
11:35 PM,32.0,22.8,69,30.28,10.0,SW,13.8,-,N/A,,Overcast,220,2013-12-27 04:35:00
11:55 PM,32.0,23.0,69,30.28,10.0,SW,12.7,17.3,N/A,,Overcast,230,2013-12-27 04:55:00